createdAt,value
2019-03-11T00:00:16.520Z,1.93
2019-03-11T00:02:44.950Z,1.77
2019-03-11T00:05:13.698Z,1.57
2019-03-11T00:07:42.494Z,2.50
2019-03-11T00:10:11.074Z,1.60
2019-03-11T00:12:39.511Z,1.37
2019-03-11T00:15:09.551Z,1.53
2019-03-11T00:17:38.260Z,1.50
2019-03-11T00:20:08.987Z,1.93
2019-03-11T00:22:37.433Z,1.70
2019-03-11T00:25:06.981Z,1.80
2019-03-11T00:27:35.399Z,1.50
2019-03-11T00:30:12.079Z,1.60
2019-03-11T00:32:40.520Z,1.43
2019-03-11T00:35:09.468Z,1.63
2019-03-11T00:37:38.280Z,1.80
2019-03-11T00:40:10.124Z,1.67
2019-03-11T00:42:38.930Z,2.20
2019-03-11T00:45:10.276Z,1.73
2019-03-11T00:47:39.072Z,2.07
2019-03-11T00:50:09.945Z,1.87
2019-03-11T00:52:38.493Z,1.73
2019-03-11T00:55:12.616Z,1.43
2019-03-11T00:57:41.375Z,1.70
2019-03-11T01:00:31.473Z,2.17
2019-03-11T01:03:00.273Z,1.87
2019-03-11T01:05:29.041Z,2.40
2019-03-11T01:07:57.479Z,1.97
2019-03-11T01:10:26.783Z,1.67
2019-03-11T01:12:55.491Z,1.80
2019-03-11T01:15:24.278Z,1.77
2019-03-11T01:17:52.718Z,2.30
2019-03-11T01:20:21.169Z,1.73
2019-03-11T01:22:49.941Z,2.20
2019-03-11T01:25:18.385Z,1.90
2019-03-11T01:27:47.096Z,2.23
2019-03-11T01:30:16.873Z,2.30
2019-03-11T01:32:45.319Z,1.67
2019-03-11T01:35:14.620Z,1.60
2019-03-11T01:37:43.368Z,2.00
2019-03-11T01:40:14.431Z,2.07
2019-03-11T01:42:42.865Z,1.67
2019-03-11T01:45:15.682Z,1.23
2019-03-11T01:47:44.100Z,1.50
2019-03-11T01:50:14.375Z,1.73
2019-03-11T01:52:42.870Z,1.80
2019-03-11T01:55:13.078Z,2.00
2019-03-11T01:57:41.858Z,1.70
2019-03-11T02:00:18.213Z,1.77
2019-03-11T02:02:46.923Z,1.83
2019-03-11T02:05:15.685Z,2.20
2019-03-11T02:07:44.491Z,2.10
2019-03-11T02:10:15.730Z,2.10
2019-03-11T02:12:44.506Z,2.13
2019-03-11T02:15:17.442Z,2.20
2019-03-11T02:17:46.356Z,2.00
2019-03-11T02:20:21.671Z,1.90
2019-03-11T02:22:50.107Z,2.20
2019-03-11T02:25:18.542Z,1.87
2019-03-11T02:27:47.015Z,2.07
2019-03-11T02:30:18.701Z,2.03
2019-03-11T02:32:47.136Z,2.23
2019-03-11T02:35:32.030Z,1.80
2019-03-11T02:38:00.772Z,2.03
2019-03-11T02:40:29.270Z,2.27
2019-03-11T02:42:57.702Z,2.17
2019-03-11T02:45:26.609Z,1.73
2019-03-11T02:47:55.056Z,1.87
2019-03-11T02:50:23.474Z,2.20
2019-03-11T02:52:51.918Z,1.73
2019-03-11T02:55:20.361Z,2.50
2019-03-11T02:57:48.823Z,2.03
2019-03-11T03:00:20.906Z,2.10
2019-03-11T03:02:54.033Z,2.43
2019-03-11T03:05:24.098Z,1.70
2019-03-11T03:07:52.550Z,1.80
2019-03-11T03:10:20.983Z,1.93
2019-03-11T03:12:49.489Z,2.37
2019-03-11T03:15:17.921Z,1.70
2019-03-11T03:17:46.675Z,1.97
2019-03-11T03:20:16.381Z,1.80
2019-03-11T03:22:44.900Z,2.07
2019-03-11T03:25:14.161Z,1.97
2019-03-11T03:27:42.987Z,2.20
2019-03-11T03:30:17.448Z,1.80
2019-03-11T03:32:46.236Z,1.40
2019-03-11T03:35:15.229Z,1.83
2019-03-11T03:37:43.666Z,1.97
2019-03-11T03:40:14.426Z,1.80
2019-03-11T03:42:42.886Z,1.87
2019-03-11T03:45:20.141Z,1.93
2019-03-11T03:47:48.718Z,1.73
2019-03-11T03:50:17.499Z,1.43
2019-03-11T03:52:46.263Z,1.80
2019-03-11T03:55:14.831Z,2.10
2019-03-11T03:57:43.642Z,1.40
2019-03-11T04:00:12.598Z,1.73
2019-03-11T04:02:41.097Z,1.23
2019-03-11T04:05:11.655Z,1.70
2019-03-11T04:07:40.107Z,1.37
2019-03-11T04:10:21.010Z,1.53
2019-03-11T04:12:49.864Z,1.40
2019-03-11T04:15:18.969Z,1.40
2019-03-11T04:17:47.739Z,1.70
2019-03-11T04:20:21.513Z,1.30
2019-03-11T04:22:50.043Z,1.80
2019-03-11T04:25:18.471Z,1.30
2019-03-11T04:27:46.893Z,2.00
2019-03-11T04:30:23.531Z,1.10
2019-03-11T04:32:53.523Z,1.13
2019-03-11T04:35:22.262Z,1.87
2019-03-11T04:37:51.045Z,1.00
2019-03-11T04:40:19.967Z,1.23
2019-03-11T04:42:48.385Z,1.27
2019-03-11T04:45:17.504Z,1.93
2019-03-11T04:47:46.556Z,1.47
2019-03-11T04:50:20.209Z,1.17
2019-03-11T04:52:49.026Z,0.97
2019-03-11T04:55:17.846Z,1.07
2019-03-11T04:57:49.393Z,1.60
2019-03-11T05:00:29.026Z,1.43
2019-03-11T05:02:57.501Z,1.10
2019-03-11T05:05:26.342Z,1.00
2019-03-11T05:07:54.758Z,0.90
2019-03-11T05:10:23.254Z,1.17
2019-03-11T05:12:51.694Z,1.00
2019-03-11T05:15:20.125Z,0.90
2019-03-11T05:17:49.008Z,1.40
2019-03-11T05:20:18.470Z,0.77
2019-03-11T05:22:46.978Z,1.00
2019-03-11T05:25:16.343Z,0.73
2019-03-11T05:27:45.213Z,0.80
2019-03-11T05:30:18.386Z,0.90
2019-03-11T05:32:47.603Z,0.70
2019-03-11T05:35:16.318Z,0.83
2019-03-11T05:37:44.843Z,0.90
2019-03-11T05:40:21.233Z,0.70
2019-03-11T05:42:49.714Z,0.60
2019-03-11T05:45:19.197Z,0.50
2019-03-11T05:47:48.175Z,1.07
2019-03-11T05:50:18.827Z,0.70
2019-03-11T05:52:47.434Z,1.10
2019-03-11T05:55:16.520Z,0.70
2019-03-11T05:57:45.513Z,1.20
2019-03-11T06:00:23.305Z,0.83
2019-03-11T06:02:52.080Z,0.90
2019-03-11T06:05:20.534Z,1.03
2019-03-11T06:07:49.258Z,1.07
2019-03-11T06:10:17.754Z,1.20
2019-03-11T06:12:46.172Z,0.90
2019-03-11T06:15:15.659Z,1.00
2019-03-11T06:17:44.283Z,0.80
2019-03-11T06:20:19.302Z,0.90
2019-03-11T06:22:47.738Z,1.27
2019-03-11T06:25:16.503Z,1.17
2019-03-11T06:27:44.948Z,1.07
2019-03-11T06:30:13.554Z,0.70
2019-03-11T06:32:41.986Z,0.90
2019-03-11T06:35:11.398Z,1.10
2019-03-11T06:37:39.829Z,0.80
2019-03-11T06:40:12.664Z,1.37
2019-03-11T06:42:41.199Z,0.50
2019-03-11T06:45:14.794Z,0.90
2019-03-11T06:47:43.266Z,0.67
2019-03-11T06:50:12.938Z,1.20
2019-03-11T06:52:41.554Z,0.77
2019-03-11T06:55:11.533Z,0.90
2019-03-11T06:57:39.961Z,0.70
2019-03-11T07:00:11.806Z,0.90
2019-03-11T07:02:40.240Z,0.70
2019-03-11T07:05:19.207Z,0.70
2019-03-11T07:07:38.907Z,0.70
2019-03-11T07:10:15.258Z,0.87
2019-03-11T07:12:44.051Z,1.57
2019-03-11T07:15:14.249Z,0.80
2019-03-11T07:17:42.686Z,0.97
2019-03-11T07:20:19.048Z,1.00
2019-03-11T07:22:48.212Z,1.13
2019-03-11T07:25:16.682Z,0.90
2019-03-11T07:27:45.556Z,1.17
2019-03-11T07:30:16.412Z,0.80
2019-03-11T07:32:44.919Z,0.70
2019-03-11T07:35:13.550Z,0.80
2019-03-11T07:37:42.049Z,0.80
2019-03-11T07:40:28.507Z,1.07
2019-03-11T07:42:47.702Z,1.00
2019-03-11T07:45:17.105Z,0.87
2019-03-11T07:47:45.754Z,0.90
2019-03-11T07:50:17.795Z,1.00
2019-03-11T07:52:46.251Z,0.70
2019-03-11T07:55:15.324Z,0.90
2019-03-11T07:57:43.741Z,0.60
2019-03-11T08:00:14.923Z,0.70
2019-03-11T08:02:43.742Z,0.60
2019-03-11T08:05:12.264Z,0.60
2019-03-11T08:07:41.102Z,0.83
2019-03-11T08:10:21.760Z,0.80
2019-03-11T08:12:50.470Z,1.00
2019-03-11T08:15:18.961Z,0.60
2019-03-11T08:17:55.542Z,0.90
2019-03-11T08:20:24.629Z,0.80
2019-03-11T08:22:53.429Z,0.80
2019-03-11T08:25:21.963Z,0.93
2019-03-11T08:27:50.394Z,0.87
2019-03-11T08:30:25.176Z,0.87
2019-03-11T08:32:53.621Z,0.63
2019-03-11T08:35:22.138Z,0.80
2019-03-11T08:37:50.575Z,0.90
2019-03-11T08:40:20.563Z,0.80
2019-03-11T08:42:49.422Z,1.30
2019-03-11T08:45:19.515Z,0.80
2019-03-11T08:47:47.933Z,0.73
2019-03-11T08:50:17.206Z,0.90
2019-03-11T08:52:45.995Z,1.10
2019-03-11T08:55:15.188Z,0.70
2019-03-11T08:57:44.552Z,0.80
2019-03-11T09:00:15.526Z,1.30
2019-03-11T09:02:43.955Z,0.97
2019-03-11T09:05:12.901Z,1.00
2019-03-11T09:07:41.675Z,1.00
2019-03-11T09:10:13.049Z,0.90
2019-03-11T09:12:41.476Z,0.87
2019-03-11T09:15:18.707Z,1.33
2019-03-11T09:17:47.208Z,1.00
2019-03-11T09:20:17.000Z,0.97
2019-03-11T09:22:45.434Z,1.10
2019-03-11T09:25:22.809Z,1.07
2019-03-11T09:27:51.357Z,0.90
2019-03-11T09:30:21.730Z,0.90
2019-03-11T09:32:50.171Z,0.90
2019-03-11T09:35:18.650Z,1.27
2019-03-11T09:37:47.193Z,1.07
2019-03-11T09:40:20.391Z,1.10
2019-03-11T09:42:49.288Z,1.27
2019-03-11T09:45:18.948Z,1.17
2019-03-11T09:47:47.989Z,0.90
2019-03-11T09:50:17.204Z,0.97
2019-03-11T09:52:45.924Z,0.90
2019-03-11T09:55:25.985Z,1.20
2019-03-11T09:57:54.786Z,0.83
2019-03-11T10:00:25.233Z,0.90
2019-03-11T10:02:53.816Z,1.00
2019-03-11T10:05:22.748Z,0.53
2019-03-11T10:07:51.524Z,0.80
2019-03-11T10:10:21.729Z,0.60
2019-03-11T10:12:50.606Z,1.13
2019-03-11T10:15:20.498Z,0.77
2019-03-11T10:17:49.285Z,1.37
2019-03-11T10:20:18.943Z,0.80
2019-03-11T10:22:47.885Z,1.03
2019-03-11T10:25:17.761Z,0.90
2019-03-11T10:27:46.197Z,0.70
2019-03-11T10:30:16.958Z,1.00
2019-03-11T10:32:46.132Z,1.00
2019-03-11T10:35:31.462Z,0.80
2019-03-11T10:37:46.900Z,1.00
2019-03-11T10:40:17.585Z,0.90
2019-03-11T10:42:46.014Z,1.10
2019-03-11T10:45:16.294Z,1.23
2019-03-11T10:47:45.674Z,0.97
2019-03-11T10:50:16.424Z,1.00
2019-03-11T10:52:44.971Z,1.00
2019-03-11T10:55:16.749Z,0.90
2019-03-11T10:57:45.951Z,0.60
2019-03-11T11:00:17.547Z,1.30
2019-03-11T11:02:46.350Z,0.87
2019-03-11T11:05:15.074Z,0.97
2019-03-11T11:07:43.518Z,1.40
2019-03-11T11:10:16.636Z,1.00
2019-03-11T11:12:45.560Z,0.80
2019-03-11T11:15:22.375Z,1.20
2019-03-11T11:17:50.857Z,0.80
2019-03-11T11:20:23.078Z,1.00
2019-03-11T11:22:53.041Z,0.90
2019-03-11T11:25:22.981Z,0.63
2019-03-11T11:27:51.718Z,0.80
2019-03-11T11:30:28.238Z,1.00
2019-03-11T11:32:56.661Z,1.00
2019-03-11T11:35:25.163Z,0.97
2019-03-11T11:37:54.086Z,0.87
2019-03-11T11:40:26.799Z,1.00
2019-03-11T11:42:55.758Z,0.80
2019-03-11T11:45:26.905Z,1.40
2019-03-11T11:47:55.689Z,0.80
2019-03-11T11:50:25.290Z,1.00
2019-03-11T11:52:54.460Z,0.80
2019-03-11T11:55:23.726Z,0.77
2019-03-11T11:57:52.993Z,0.70
2019-03-11T12:00:25.717Z,0.87
2019-03-11T12:02:55.288Z,1.10
2019-03-11T12:05:24.532Z,0.70
2019-03-11T12:07:53.022Z,1.00
2019-03-11T12:10:26.341Z,0.90
2019-03-11T12:12:56.164Z,0.87
2019-03-11T12:15:24.671Z,1.07
2019-03-11T12:17:53.558Z,0.80
2019-03-11T12:20:27.129Z,0.80
2019-03-11T12:22:55.597Z,1.10
2019-03-11T12:25:24.112Z,1.23
2019-03-11T12:27:54.225Z,1.00
2019-03-11T12:30:25.776Z,0.97
2019-03-11T12:32:54.850Z,1.00
2019-03-11T12:35:23.882Z,1.00
2019-03-11T12:37:52.936Z,0.73
2019-03-11T12:40:21.818Z,0.80
2019-03-11T12:42:50.755Z,0.70
2019-03-11T12:45:24.728Z,0.80
2019-03-11T12:47:53.911Z,0.80
2019-03-11T12:50:29.779Z,1.27
2019-03-11T12:53:07.665Z,0.70
2019-03-11T12:55:36.658Z,1.23
2019-03-11T12:58:10.908Z,0.97
2019-03-11T13:00:40.183Z,0.87
2019-03-11T13:03:08.605Z,0.80
2019-03-11T13:05:37.033Z,1.00
2019-03-11T13:08:06.011Z,0.93
2019-03-11T13:10:34.529Z,1.27
2019-03-11T13:13:03.039Z,0.90
2019-03-11T13:15:31.512Z,0.87
2019-03-11T13:18:29.140Z,0.87
2019-03-11T13:20:57.930Z,0.80
2019-03-11T13:23:26.378Z,1.20
2019-03-11T13:25:54.830Z,1.00
2019-03-11T13:28:23.647Z,1.10
2019-03-11T13:30:52.077Z,0.87
2019-03-11T13:33:20.503Z,0.80
2019-03-11T13:35:49.303Z,0.63
2019-03-11T13:38:18.045Z,1.17
2019-03-11T13:40:46.760Z,1.13
2019-03-11T13:43:15.189Z,0.77
2019-03-11T13:45:43.945Z,0.80
2019-03-11T13:48:12.465Z,0.90
2019-03-11T13:50:40.914Z,0.80
2019-03-11T13:53:09.699Z,1.13
2019-03-11T13:55:38.147Z,0.90
2019-03-11T13:58:06.567Z,1.10
2019-03-11T14:00:35.034Z,0.87
2019-03-11T14:03:03.805Z,1.00
2019-03-11T14:05:32.502Z,0.60
2019-03-11T14:08:01.294Z,1.00
2019-03-11T14:10:29.769Z,0.80
2019-03-11T14:12:58.193Z,0.70
2019-03-11T14:15:26.626Z,0.90
2019-03-11T14:17:55.060Z,0.90
2019-03-11T14:20:23.982Z,0.73
2019-03-11T14:22:52.413Z,1.00
2019-03-11T14:25:21.198Z,1.10
2019-03-11T14:27:49.657Z,1.00
2019-03-11T14:30:23.241Z,0.90
2019-03-11T14:32:51.735Z,1.00
2019-03-11T14:35:20.187Z,0.80
2019-03-11T14:37:48.613Z,1.00
2019-03-11T14:40:18.201Z,1.07
2019-03-11T14:42:46.701Z,0.90
2019-03-11T14:45:17.859Z,1.00
2019-03-11T14:47:46.575Z,0.73
2019-03-11T14:50:16.089Z,1.30
2019-03-11T14:52:44.885Z,0.87
2019-03-11T14:55:15.236Z,0.73
2019-03-11T14:57:43.727Z,1.20
2019-03-11T15:00:19.449Z,1.07
2019-03-11T15:02:48.676Z,0.73
2019-03-11T15:05:18.659Z,0.90
2019-03-11T15:07:47.688Z,0.67
2019-03-11T15:10:17.866Z,1.00
2019-03-11T15:12:47.070Z,1.20
2019-03-11T15:15:18.585Z,0.90
2019-03-11T15:17:47.014Z,1.03
2019-03-11T15:20:15.888Z,0.80
2019-03-11T15:22:44.637Z,0.90
2019-03-11T15:25:14.613Z,0.77
2019-03-11T15:27:43.066Z,0.87
2019-03-11T15:30:17.009Z,0.80
2019-03-11T15:32:45.857Z,0.90
2019-03-11T15:35:16.778Z,0.87
2019-03-11T15:37:45.208Z,1.60
2019-03-11T15:40:16.428Z,1.33
2019-03-11T15:42:45.741Z,1.90
2019-03-11T15:45:15.997Z,0.90
2019-03-11T15:47:44.831Z,0.77
2019-03-11T15:50:28.525Z,1.17
2019-03-11T15:52:57.322Z,0.90
2019-03-11T15:55:25.840Z,1.00
2019-03-11T15:57:54.253Z,0.80
2019-03-11T16:00:24.055Z,1.03
2019-03-11T16:02:53.390Z,0.80
2019-03-11T16:05:23.705Z,0.70
2019-03-11T16:07:52.316Z,1.10
2019-03-11T16:10:21.102Z,0.73
2019-03-11T16:12:49.629Z,0.80
2019-03-11T16:15:18.317Z,0.93
2019-03-11T16:17:46.904Z,1.20
2019-03-11T16:20:26.643Z,0.73
2019-03-11T16:22:55.872Z,1.43
2019-03-11T16:25:24.289Z,1.30
2019-03-11T16:27:52.744Z,0.90
2019-03-11T16:30:22.977Z,1.00
2019-03-11T16:32:59.501Z,0.87
2019-03-11T16:35:23.994Z,1.10
2019-03-11T16:37:52.444Z,0.90
2019-03-11T16:40:20.946Z,0.97
2019-03-11T16:42:49.376Z,0.93
2019-03-11T16:45:19.651Z,0.80
2019-03-11T16:47:48.980Z,0.80
2019-03-11T16:50:20.017Z,0.90
2019-03-11T16:52:48.812Z,1.00
2019-03-11T16:55:21.275Z,1.00
2019-03-11T16:57:50.050Z,0.87
2019-03-11T17:00:21.966Z,1.00
2019-03-11T17:02:50.609Z,0.90
2019-03-11T17:05:19.033Z,0.97
2019-03-11T17:07:47.861Z,0.83
2019-03-11T17:10:19.109Z,0.97
2019-03-11T17:12:47.722Z,0.87
2019-03-11T17:15:16.221Z,0.90
2019-03-11T17:17:44.781Z,0.90
2019-03-11T17:20:18.399Z,0.50
2019-03-11T17:22:46.856Z,0.90
2019-03-11T17:25:15.643Z,0.90
2019-03-11T17:27:44.445Z,1.10
2019-03-11T17:30:19.085Z,1.37
2019-03-11T17:32:47.541Z,0.90
2019-03-11T17:35:17.022Z,1.10
2019-03-11T17:37:46.422Z,1.20
2019-03-11T17:40:17.920Z,0.90
2019-03-11T17:42:46.777Z,1.27
2019-03-11T17:45:16.559Z,3.30
2019-03-11T17:47:45.063Z,1.30
2019-03-11T17:50:18.339Z,1.10
2019-03-11T17:52:47.438Z,1.00
2019-03-11T17:55:17.295Z,1.20
2019-03-11T17:57:46.329Z,0.83
2019-03-11T18:00:21.065Z,1.30
2019-03-11T18:02:49.885Z,0.93
2019-03-11T18:05:18.520Z,0.87
2019-03-11T18:07:47.366Z,1.00
2019-03-11T18:10:16.285Z,1.10
2019-03-11T18:12:44.721Z,1.10
2019-03-11T18:15:14.691Z,1.33
2019-03-11T18:17:43.989Z,1.00
2019-03-11T18:20:20.607Z,1.17
2019-03-11T18:22:49.706Z,1.00
2019-03-11T18:25:20.241Z,1.40
2019-03-11T18:27:48.724Z,0.83
2019-03-11T18:30:25.861Z,1.20
2019-03-11T18:32:54.404Z,1.07
2019-03-11T18:35:22.942Z,0.97
2019-03-11T18:38:02.929Z,1.40
2019-03-11T18:40:21.751Z,1.03
2019-03-11T18:42:50.915Z,1.00
2019-03-11T18:45:19.346Z,0.93
2019-03-11T18:47:48.066Z,0.90
2019-03-11T18:50:18.901Z,1.13
2019-03-11T18:52:47.344Z,1.07
2019-03-11T18:55:15.993Z,1.23
2019-03-11T18:57:44.418Z,1.20
2019-03-11T19:00:20.073Z,0.90
2019-03-11T19:02:49.272Z,1.10
2019-03-11T19:05:19.847Z,0.93
2019-03-11T19:07:48.400Z,1.50
2019-03-11T19:10:17.457Z,0.90
2019-03-11T19:12:45.957Z,1.33
2019-03-11T19:15:17.639Z,1.03
2019-03-11T19:17:46.382Z,0.93
2019-03-11T19:20:23.027Z,1.40
2019-03-11T19:22:51.814Z,1.20
2019-03-11T19:25:20.393Z,2.20
2019-03-11T19:27:49.175Z,1.07
2019-03-11T19:30:20.007Z,1.03
2019-03-11T19:32:48.624Z,1.10
2019-03-11T19:35:18.012Z,1.20
2019-03-11T19:37:47.013Z,1.17
2019-03-11T19:40:20.554Z,1.30
2019-03-11T19:42:49.098Z,1.00
2019-03-11T19:45:18.252Z,1.10
2019-03-11T19:47:46.723Z,1.13
2019-03-11T19:50:21.287Z,1.40
2019-03-11T19:52:58.358Z,1.17
2019-03-11T19:55:20.291Z,1.33
2019-03-11T19:57:49.378Z,1.10
2019-03-11T20:00:22.383Z,1.20
2019-03-11T20:02:51.031Z,1.17
2019-03-11T20:05:31.825Z,1.13
2019-03-11T20:08:00.410Z,1.20
2019-03-11T20:10:29.504Z,1.00
2019-03-11T20:12:58.050Z,0.97
2019-03-11T20:15:26.662Z,0.90
2019-03-11T20:17:55.097Z,1.20
2019-03-11T20:20:23.640Z,1.33
2019-03-11T20:22:53.041Z,1.00
2019-03-11T20:25:30.058Z,1.30
2019-03-11T20:27:58.685Z,1.23
2019-03-11T20:30:27.400Z,0.93
2019-03-11T20:32:55.898Z,1.00
2019-03-11T20:35:24.480Z,1.30
2019-03-11T20:38:01.991Z,1.00
2019-03-11T20:40:30.785Z,1.30
2019-03-11T20:42:59.281Z,1.00
2019-03-11T20:45:27.729Z,1.67
2019-03-11T20:47:56.207Z,1.27
2019-03-11T20:50:24.753Z,1.10
2019-03-11T20:52:53.261Z,1.17
2019-03-11T20:55:21.822Z,0.97
2019-03-11T20:57:50.479Z,1.10
2019-03-11T21:00:23.904Z,1.20
2019-03-11T21:02:52.456Z,1.13
2019-03-11T21:05:27.141Z,1.33
2019-03-11T21:07:55.851Z,1.00
2019-03-11T21:10:24.346Z,1.17
2019-03-11T21:12:52.904Z,1.03
2019-03-11T21:15:22.070Z,1.10
2019-03-11T21:17:50.569Z,1.10
2019-03-11T21:20:20.417Z,1.17
2019-03-11T21:22:48.878Z,1.07
2019-03-11T21:25:18.813Z,1.00
2019-03-11T21:27:47.400Z,1.10
2019-03-11T21:30:18.957Z,1.23
2019-03-11T21:32:47.950Z,1.00
2019-03-11T21:35:16.980Z,0.97
2019-03-11T21:37:46.011Z,0.93
2019-03-11T21:40:16.598Z,0.97
2019-03-11T21:42:46.048Z,1.10
2019-03-11T21:45:15.947Z,1.20
2019-03-11T21:47:44.473Z,1.10
2019-03-11T21:50:26.422Z,0.87
2019-03-11T21:52:55.160Z,0.83
2019-03-11T21:55:23.732Z,0.97
2019-03-11T21:57:53.053Z,0.97
2019-03-11T22:00:34.040Z,1.03
2019-03-11T22:02:54.017Z,1.10
2019-03-11T22:05:22.698Z,1.43
2019-03-11T22:07:51.478Z,0.90
2019-03-11T22:10:20.766Z,1.53
2019-03-11T22:12:49.463Z,0.93
2019-03-11T22:15:24.841Z,0.93
2019-03-11T22:17:53.271Z,1.30
2019-03-11T22:20:22.272Z,1.13
2019-03-11T22:22:51.163Z,1.13
2019-03-11T22:25:21.858Z,1.17
2019-03-11T22:27:50.277Z,1.17
2019-03-11T22:30:22.753Z,1.00
2019-03-11T22:32:51.705Z,1.30
2019-03-11T22:35:20.321Z,1.10
2019-03-11T22:37:49.109Z,1.17
2019-03-11T22:40:18.933Z,1.10
2019-03-11T22:42:47.370Z,1.00
2019-03-11T22:45:21.495Z,1.23
2019-03-11T22:47:51.623Z,1.33
2019-03-11T22:50:21.102Z,1.37
2019-03-11T22:52:49.960Z,1.20
2019-03-11T22:55:19.885Z,1.20
2019-03-11T22:57:48.913Z,0.83
2019-03-11T23:00:20.785Z,1.00
2019-03-11T23:02:49.590Z,1.47
2019-03-11T23:05:18.103Z,1.57
2019-03-11T23:07:46.538Z,1.37
2019-03-11T23:10:15.160Z,1.30
2019-03-11T23:12:43.590Z,1.40
2019-03-11T23:15:12.104Z,1.17
2019-03-11T23:17:40.863Z,1.07
2019-03-11T23:20:10.455Z,1.17
2019-03-11T23:22:38.877Z,1.20
2019-03-11T23:25:08.550Z,1.03
2019-03-11T23:27:37.003Z,1.00
2019-03-11T23:30:08.979Z,1.43
2019-03-11T23:32:37.414Z,1.20
2019-03-11T23:35:07.406Z,1.10
2019-03-11T23:37:35.837Z,1.50
2019-03-11T23:40:06.082Z,1.43
2019-03-11T23:42:34.866Z,1.07
2019-03-11T23:45:04.278Z,1.50
2019-03-11T23:47:33.067Z,1.07
2019-03-11T23:50:01.490Z,1.37
2019-03-11T23:52:29.937Z,1.30
2019-03-11T23:54:58.386Z,1.57
2019-03-11T23:57:27.184Z,1.53
2019-03-11T23:59:55.612Z,1.50
